Time;durP1;ratioP1;P1;durP2;ratioP2;P2;SDS_P1;SDS_P2;PMS_P1;PMS_P2;Temp;Humidity;BMP_temperature;BMP_pressure;BME280_temperature;BME280_humidity;BME280_pressure;Samples;Min_cycle;Max_cycle;Signal;HPM_P1;HPM_P2
2023/08/27 00:56:15;;;;;;;27.80;18.60;;;;;;;19.59;86.73;99656.30;128129;1284;110061;-76
2023/08/27 02:25:24;;;;;;;9.80;8.50;;;;;;;19.83;88.75;99693.17;128399;1284;107424;-76
2023/08/27 03:44:41;;;;;;;7.40;5.30;;;;;;;19.30;89.72;99563.96;128260;1284;109064;-75
2023/08/27 04:57:19;;;;;;;4.50;3.80;;;;;;;21.45;87.91;99612.11;128237;1285;108944;-74
2023/08/27 06:21:46;;;;;;;8.50;6.60;;;;;;;22.33;86.39;99576.56;128333;1284;107815;-73
2023/08/27 06:24:52;;;;;;;8.30;7.00;;;;;;;22.42;86.61;99577.98;128778;1280;106442;-73
2023/08/27 06:27:58;;;;;;;7.40;6.70;;;;;;;22.40;86.15;99580.41;127996;1285;106761;-73
2023/08/27 06:31:04;;;;;;;8.10;7.20;;;;;;;22.42;86.40;99583.70;128403;1284;109805;-74
2023/08/27 06:34:10;;;;;;;9.50;7.50;;;;;;;22.47;86.47;99580.20;128157;1285;107756;-74
2023/08/27 06:37:15;;;;;;;7.70;6.90;;;;;;;22.50;86.42;99579.75;127957;1279;106717;-75
2023/08/27 06:40:22;;;;;;;8.40;7.20;;;;;;;22.53;86.09;99586.33;128233;1284;107681;-75
2023/08/27 06:43:29;;;;;;;8.80;7.90;;;;;;;22.50;85.91;99586.66;127896;1288;106839;-75
2023/08/27 06:46:36;;;;;;;9.20;7.60;;;;;;;22.48;85.94;99584.17;128278;1279;108806;-73
2023/08/27 06:49:41;;;;;;;11.10;8.10;;;;;;;22.53;85.51;99580.41;127926;1285;106462;-74
2023/08/27 06:52:47;;;;;;;11.60;8.10;;;;;;;22.58;85.30;99579.61;128042;1279;107754;-74
2023/08/27 06:55:53;;;;;;;8.50;7.60;;;;;;;22.65;85.55;99572.33;127992;1285;107639;-74
2023/08/27 06:58:59;;;;;;;7.40;6.50;;;;;;;22.68;85.48;99575.52;130324;1279;106868;-78
2023/08/27 07:02:04;;;;;;;10.20;6.90;;;;;;;22.76;85.54;99571.12;130658;1279;106944;-79
2023/08/27 07:05:11;;;;;;;10.00;6.80;;;;;;;22.89;85.31;99573.64;128277;1287;108741;-75
2023/08/27 07:08:19;;;;;;;8.50;7.40;;;;;;;22.97;85.06;99583.04;128335;1284;107491;-77
2023/08/27 07:11:24;;;;;;;7.80;7.00;;;;;;;23.00;84.85;99578.84;127862;1285;107609;-79
2023/08/27 07:14:30;;;;;;;7.70;6.90;;;;;;;23.05;85.33;99582.04;128065;1287;108063;-75
2023/08/27 07:17:38;;;;;;;7.20;6.30;;;;;;;23.15;85.07;99575.96;128489;1282;107141;-76
2023/08/27 07:20:44;;;;;;;10.70;6.70;;;;;;;23.20;84.31;99575.10;128543;1282;108186;-77
2023/08/27 07:23:49;;;;;;;8.30;6.00;;;;;;;23.14;81.77;99572.42;128009;1285;107788;-76
2023/08/27 07:26:55;;;;;;;7.60;6.00;;;;;;;23.15;83.92;99570.97;128298;1279;107101;-75
2023/08/27 07:30:00;;;;;;;8.80;7.10;;;;;;;23.27;83.11;99575.68;128917;1279;106853;-75
2023/08/27 07:33:14;;;;;;;7.50;6.70;;;;;;;23.30;83.15;99577.80;129228;1283;106907;-77
2023/08/27 07:36:20;;;;;;;8.00;6.30;;;;;;;23.32;82.68;99584.63;129021;1284;107797;-76
2023/08/27 07:39:25;;;;;;;6.90;6.10;;;;;;;23.37;82.74;99582.48;128081;1285;107674;-75
2023/08/27 07:42:31;;;;;;;6.90;5.80;;;;;;;23.41;82.25;99583.86;128534;1279;107843;-75
2023/08/27 07:45:37;;;;;;;7.90;5.20;;;;;;;23.52;82.94;99574.41;129111;1288;107881;-78
2023/08/27 07:48:42;;;;;;;6.70;5.90;;;;;;;23.70;82.04;99565.61;128196;1282;107770;-73
2023/08/27 07:51:48;;;;;;;6.80;6.10;;;;;;;23.76;81.43;99567.20;128030;1285;107684;-74
2023/08/27 07:54:54;;;;;;;6.50;5.20;;;;;;;23.85;82.03;99572.16;128308;1284;107553;-74
2023/08/27 07:57:59;;;;;;;7.70;4.70;;;;;;;23.99;81.97;99574.37;128017;1285;108882;-75
2023/08/27 08:01:07;;;;;;;8.10;5.20;;;;;;;24.15;81.76;99575.11;128303;1284;107830;-78
2023/08/27 08:04:14;;;;;;;7.10;4.90;;;;;;;24.31;81.56;99570.05;128076;1295;106979;-78
2023/08/27 08:07:20;;;;;;;9.00;5.30;;;;;;;24.45;80.83;99571.69;128403;1284;107114;-78
2023/08/27 08:10:25;;;;;;;6.10;4.80;;;;;;;24.49;79.62;99572.00;128348;1284;107994;-78
2023/08/27 08:13:32;;;;;;;7.10;4.80;;;;;;;24.60;79.93;99572.92;128270;1285;106682;-83
2023/08/27 08:16:37;;;;;;;6.40;5.10;;;;;;;24.79;79.02;99574.79;128461;1279;107723;-83
2023/08/27 08:19:43;;;;;;;5.40;4.90;;;;;;;24.98;79.03;99570.85;128578;1284;108011;-84
2023/08/27 08:22:49;;;;;;;6.30;5.20;;;;;;;25.13;76.05;99567.54;128489;1279;107016;-84
2023/08/27 08:25:54;;;;;;;7.80;5.10;;;;;;;25.19;77.06;99565.77;128398;1284;108548;-82
2023/08/27 08:29:00;;;;;;;5.20;4.70;;;;;;;25.25;76.24;99561.35;128474;1281;107052;-82
2023/08/27 08:32:06;;;;;;;5.40;4.90;;;;;;;25.28;74.34;99563.31;128325;1292;107758;-82
2023/08/27 08:35:12;;;;;;;7.10;5.20;;;;;;;25.32;76.52;99566.45;128490;1284;107509;-81
2023/08/27 08:38:18;;;;;;;5.80;5.00;;;;;;;25.33;76.16;99553.45;128113;1284;106909;-82
2023/08/27 08:41:27;;;;;;;6.00;5.30;;;;;;;25.37;75.77;99537.78;128374;1284;107060;-84
2023/08/27 08:44:40;;;;;;;6.10;4.80;;;;;;;25.39;76.37;99537.30;128393;1284;107802;-82
2023/08/27 08:47:48;;;;;;;5.90;5.20;;;;;;;25.46;75.56;99536.39;128462;1284;107779;-90
2023/08/27 08:50:55;;;;;;;6.00;5.00;;;;;;;25.57;74.20;99541.94;128359;1284;107543;-84
2023/08/27 08:54:05;;;;;;;7.10;5.30;;;;;;;25.65;73.57;99543.48;128453;1285;107474;-81
2023/08/27 08:57:14;;;;;;;5.40;4.80;;;;;;;25.77;73.56;99543.18;128389;1284;106878;-82
2023/08/27 09:00:21;;;;;;;8.60;5.10;;;;;;;26.00;74.07;99546.96;128278;1279;106878;-83
2023/08/27 09:03:30;;;;;;;6.90;5.90;;;;;;;26.30;73.79;99546.67;128443;1284;108157;-82
2023/08/27 09:06:38;;;;;;;6.20;4.90;;;;;;;26.42;71.69;99537.15;128499;1285;106882;-76
2023/08/27 09:09:45;;;;;;;7.50;4.80;;;;;;;26.64;73.34;99524.00;128377;1285;107338;-80
2023/08/27 09:12:55;;;;;;;9.00;4.90;;;;;;;26.94;72.93;99512.02;128451;1285;108731;-81
2023/08/27 09:16:01;;;;;;;5.50;4.90;;;;;;;26.98;70.75;99501.77;128416;1285;107755;-79
2023/08/27 09:19:07;;;;;;;5.70;4.90;;;;;;;26.86;70.22;99498.70;128406;1285;107020;-80
2023/08/27 09:22:12;;;;;;;5.10;4.60;;;;;;;26.99;72.40;99483.48;128431;1292;107203;-80
2023/08/27 09:25:18;;;;;;;6.40;4.30;;;;;;;27.13;71.41;99477.66;128389;1279;106806;-83
2023/08/27 09:28:25;;;;;;;7.20;5.30;;;;;;;27.17;69.77;99481.59;128466;1279;107572;-79
2023/08/27 09:31:40;;;;;;;11.20;5.20;;;;;;;27.10;69.08;99479.97;128445;1292;107210;-80
2023/08/27 09:34:46;;;;;;;5.90;4.80;;;;;;;27.06;67.62;99486.68;128421;1283;107891;-79
2023/08/27 09:37:52;;;;;;;5.10;4.60;;;;;;;26.99;68.88;99490.33;128489;1285;107373;-81
2023/08/27 09:41:09;;;;;;;5.20;4.70;;;;;;;27.07;69.89;99487.23;128493;1285;107761;-82
2023/08/27 09:44:16;;;;;;;6.80;4.70;;;;;;;27.09;68.73;99492.59;128250;1284;107020;-82
2023/08/27 09:47:31;;;;;;;6.00;5.00;;;;;;;27.13;67.08;99489.55;128378;1291;108130;-82
2023/08/27 09:50:36;;;;;;;5.10;4.60;;;;;;;27.13;68.28;99488.18;128437;1284;107907;-81
2023/08/27 09:53:42;;;;;;;5.60;4.50;;;;;;;27.10;67.92;99475.77;128864;1284;107718;-81
2023/08/27 09:56:50;;;;;;;6.90;4.60;;;;;;;26.92;67.45;99471.26;128498;1285;106939;-81
2023/08/27 09:59:56;;;;;;;5.10;4.50;;;;;;;26.74;68.12;99459.50;128396;1293;107887;-80
2023/08/27 10:03:01;;;;;;;6.90;4.60;;;;;;;26.65;66.72;99469.92;128246;1285;108208;-80
2023/08/27 10:06:08;;;;;;;6.20;4.10;;;;;;;26.72;67.65;99467.34;128252;1279;107860;-81
2023/08/27 10:09:14;;;;;;;4.80;4.30;;;;;;;26.75;68.15;99459.00;128230;1284;108308;-82
2023/08/27 10:12:21;;;;;;;5.40;4.30;;;;;;;26.77;68.19;99455.15;128109;1279;107062;-81
2023/08/27 10:15:28;;;;;;;5.20;4.20;;;;;;;26.79;67.89;99448.14;128125;1285;108066;-82
2023/08/27 10:18:35;;;;;;;5.80;4.70;;;;;;;26.71;67.75;99446.91;128238;1286;107905;-82
2023/08/27 10:21:41;;;;;;;5.30;4.20;;;;;;;26.75;67.41;99451.17;128631;1284;107713;-82
2023/08/27 10:24:48;;;;;;;5.30;4.70;;;;;;;26.85;66.87;99447.95;128416;1283;106738;-80
2023/08/27 10:27:54;;;;;;;4.90;4.40;;;;;;;26.82;66.70;99457.77;128456;1292;106689;-81
2023/08/27 10:31:00;;;;;;;4.40;4.00;;;;;;;26.87;66.71;99471.77;128625;1279;108483;-80
2023/08/27 10:34:08;;;;;;;4.90;3.90;;;;;;;27.01;66.09;99469.08;128281;1279;105823;-82
2023/08/27 10:37:15;;;;;;;4.60;4.00;;;;;;;27.13;66.51;99463.04;128341;1284;107539;-82
2023/08/27 10:40:24;;;;;;;4.80;4.30;;;;;;;27.30;65.69;99466.32;128446;1279;106836;-82
2023/08/27 10:43:35;;;;;;;5.30;4.20;;;;;;;27.36;65.75;99464.25;128347;1279;107730;-81
2023/08/27 10:46:40;;;;;;;5.10;4.30;;;;;;;27.37;64.74;99452.35;128421;1283;107152;-81
2023/08/27 10:49:52;;;;;;;4.30;3.90;;;;;;;27.49;65.59;99449.48;128546;1285;108788;-81
2023/08/27 10:52:58;;;;;;;6.10;4.20;;;;;;;27.60;64.21;99445.77;128828;1283;107151;-82
2023/08/27 10:56:25;;;;;;;6.00;4.30;;;;;;;27.60;64.37;99443.80;128436;1286;106961;-82
2023/08/27 10:59:31;;;;;;;4.30;3.70;;;;;;;27.71;65.17;99446.52;128306;1284;108650;-83
2023/08/27 11:02:57;;;;;;;5.00;3.80;;;;;;;27.82;65.02;99432.98;128447;1284;108894;-83
2023/08/27 11:06:16;;;;;;;4.10;3.70;;;;;;;27.87;63.95;99425.15;128497;1284;107544;-82
2023/08/27 11:09:24;;;;;;;4.30;3.90;;;;;;;27.83;63.31;99428.70;128364;1286;106815;-83
2023/08/27 11:12:35;;;;;;;4.70;3.50;;;;;;;27.82;64.13;99430.02;128149;1285;108692;-81
2023/08/27 11:15:42;;;;;;;4.10;3.70;;;;;;;27.86;64.17;99419.96;127920;1286;107633;-84
2023/08/27 11:18:50;;;;;;;4.90;4.20;;;;;;;27.94;64.38;99416.23;128313;1285;107248;-81
2023/08/27 11:22:07;;;;;;;4.70;3.60;;;;;;;27.98;63.94;99417.74;128390;1286;106854;-81
2023/08/27 11:25:13;;;;;;;3.80;3.40;;;;;;;27.97;63.81;99424.45;128304;1285;107959;-81
2023/08/27 11:28:19;;;;;;;4.60;3.80;;;;;;;27.88;62.82;99428.30;128456;1286;108550;-80
2023/08/27 11:31:25;;;;;;;3.70;3.40;;;;;;;27.69;62.42;99425.97;128390;1284;106088;-81
2023/08/27 11:34:40;;;;;;;4.60;3.70;;;;;;;27.54;62.36;99421.92;128237;1285;107840;-81
2023/08/27 11:37:49;;;;;;;4.60;3.60;;;;;;;27.41;62.36;99418.08;128520;1279;107919;-88
2023/08/27 11:40:59;;;;;;;4.10;3.70;;;;;;;27.36;61.56;99420.47;128314;1282;108043;-82
2023/08/27 11:44:08;;;;;;;4.70;4.00;;;;;;;27.37;62.21;99429.02;128389;1285;106726;-82
2023/08/27 11:47:13;;;;;;;5.30;4.00;;;;;;;27.48;61.32;99428.00;128572;1284;107907;-85
2023/08/27 11:50:19;;;;;;;3.90;3.60;;;;;;;27.63;62.40;99430.84;128220;1285;107884;-85
2023/08/27 11:53:26;;;;;;;5.20;3.80;;;;;;;27.86;62.78;99423.10;128607;1284;108018;-85
2023/08/27 11:56:32;;;;;;;4.70;4.00;;;;;;;28.06;62.25;99417.72;128354;1284;106685;-83
2023/08/27 11:59:39;;;;;;;4.00;3.50;;;;;;;28.14;62.03;99415.38;128299;1284;107976;-84
2023/08/27 12:02:45;;;;;;;5.50;3.60;;;;;;;28.11;61.39;99417.38;128405;1284;108926;-80
2023/08/27 12:05:52;;;;;;;5.20;3.70;;;;;;;28.07;61.20;99412.28;128297;1284;107535;-80
2023/08/27 12:08:59;;;;;;;4.30;3.90;;;;;;;28.00;60.56;99406.10;128498;1285;107570;-81
2023/08/27 12:12:07;;;;;;;4.20;3.70;;;;;;;27.90;61.59;99395.17;128489;1284;107846;-84
2023/08/27 12:15:13;;;;;;;4.90;3.80;;;;;;;27.80;61.22;99387.22;128771;1281;106821;-80
2023/08/27 12:18:19;;;;;;;3.90;3.30;;;;;;;27.70;60.62;99377.83;129458;1279;108659;-82
2023/08/27 12:21:25;;;;;;;4.50;4.10;;;;;;;27.69;61.66;99377.79;129352;1285;108618;-80
2023/08/27 12:24:33;;;;;;;5.20;4.20;;;;;;;27.78;61.62;99381.05;128302;1284;109058;-80
2023/08/27 12:27:40;;;;;;;6.80;4.50;;;;;;;27.91;62.06;99375.96;128301;1286;107577;-82
2023/08/27 12:30:52;;;;;;;4.50;4.10;;;;;;;28.06;61.42;99374.84;128278;1292;107645;-80
2023/08/27 12:34:05;;;;;;;7.30;4.10;;;;;;;28.15;60.98;99370.67;128275;1279;106849;-80
2023/08/27 12:37:12;;;;;;;4.80;4.10;;;;;;;28.26;59.80;99365.50;128273;1286;107067;-80
2023/08/27 12:40:17;;;;;;;5.60;4.30;;;;;;;28.23;58.67;99364.71;128284;1280;107440;-81
2023/08/27 12:43:21;;;;;;;;;;;;;;;28.25;59.88;99355.73;128125;1279;107946;-80
2023/08/27 12:46:27;;;;;;;4.40;4.00;;;;;;;28.42;60.07;99345.60;128263;1292;106787;-80
2023/08/27 12:49:33;;;;;;;4.50;3.90;;;;;;;28.61;60.21;99337.04;128280;1291;107338;-80
2023/08/27 12:52:38;;;;;;;5.60;3.90;;;;;;;28.72;59.76;99343.30;128109;1292;175744;-80
2023/08/27 12:55:44;;;;;;;4.00;3.70;;;;;;;28.72;59.42;99353.09;128290;1284;106643;-81
2023/08/27 12:58:50;;;;;;;4.10;3.70;;;;;;;28.68;59.20;99360.89;128274;1292;106379;-80
2023/08/27 13:01:55;;;;;;;4.60;3.60;;;;;;;28.57;59.33;99351.92;128343;1279;107768;-80
2023/08/27 13:05:03;;;;;;;4.30;3.80;;;;;;;28.55;59.68;99357.15;128286;1283;107563;-80
2023/08/27 13:08:09;;;;;;;4.70;4.20;;;;;;;28.55;59.40;99360.95;128313;1292;108645;-80
2023/08/27 13:11:15;;;;;;;4.60;3.60;;;;;;;28.47;59.35;99369.45;128270;1292;106410;-80
2023/08/27 13:14:21;;;;;;;4.40;3.90;;;;;;;28.43;59.38;99366.29;128224;1279;106956;-81
2023/08/27 13:17:27;;;;;;;4.40;4.00;;;;;;;28.39;59.25;99352.84;128227;1285;107615;-80
2023/08/27 13:20:32;;;;;;;5.10;3.80;;;;;;;28.43;59.53;99340.43;128317;1292;106941;-81
2023/08/27 13:23:38;;;;;;;6.10;3.80;;;;;;;28.48;59.23;99328.45;128148;1284;108438;-81
2023/08/27 13:26:46;;;;;;;4.20;3.80;;;;;;;28.43;59.34;99325.61;128164;1279;107817;-80
2023/08/27 13:29:52;;;;;;;4.60;4.10;;;;;;;28.28;59.15;99334.64;128125;1283;107703;-81
2023/08/27 13:32:58;;;;;;;3.80;3.50;;;;;;;28.08;59.58;99331.69;128115;1283;108506;-80
2023/08/27 13:36:04;;;;;;;5.10;3.80;;;;;;;27.92;59.37;99330.66;127944;1283;108290;-80
2023/08/27 13:39:10;;;;;;;5.10;3.80;;;;;;;27.74;59.93;99325.49;127976;1293;108381;-80
2023/08/27 13:42:16;;;;;;;5.80;4.20;;;;;;;27.68;60.01;99326.23;128243;1286;106805;-80
2023/08/27 13:45:22;;;;;;;5.00;3.90;;;;;;;27.58;59.51;99326.31;128215;1283;108444;-80
2023/08/27 13:48:27;;;;;;;4.50;3.90;;;;;;;27.43;59.72;99318.88;128255;1280;107788;-82
2023/08/27 13:51:33;;;;;;;5.00;3.60;;;;;;;27.41;59.73;99319.44;128268;1292;108023;-80
2023/08/27 13:54:39;;;;;;;4.70;3.90;;;;;;;27.46;59.99;99323.30;128295;1293;108881;-79
2023/08/27 13:57:46;;;;;;;5.30;4.00;;;;;;;27.51;60.29;99329.45;128333;1288;108048;-80
2023/08/27 14:00:52;;;;;;;4.10;3.60;;;;;;;27.52;60.19;99328.29;128305;1286;107125;-80
2023/08/27 14:03:57;;;;;;;4.10;3.70;;;;;;;27.49;60.17;99322.50;128270;1286;105881;-80
2023/08/27 14:07:04;;;;;;;5.20;4.00;;;;;;;27.45;60.36;99318.11;128293;1292;107271;-80
2023/08/27 14:10:11;;;;;;;4.30;3.80;;;;;;;27.36;60.16;99314.95;128280;1279;106957;-80
2023/08/27 14:13:17;;;;;;;4.20;3.80;;;;;;;27.25;60.42;99312.46;128225;1292;108506;-80
2023/08/27 14:16:23;;;;;;;4.90;3.80;;;;;;;27.16;60.70;99312.84;128239;1279;106985;-80
2023/08/27 14:19:30;;;;;;;5.10;4.20;;;;;;;27.13;60.66;99326.93;128362;1285;107794;-80
2023/08/27 14:22:36;;;;;;;4.70;3.90;;;;;;;27.08;60.70;99331.20;128323;1279;108600;-80
2023/08/27 14:25:42;;;;;;;5.00;3.90;;;;;;;27.01;60.87;99331.08;128282;1292;107804;-80
2023/08/27 14:28:47;;;;;;;5.60;4.40;;;;;;;26.93;61.10;99328.08;128195;1284;106966;-80
2023/08/27 14:31:53;;;;;;;4.70;4.10;;;;;;;26.85;61.31;99329.76;128326;1284;107980;-80
2023/08/27 14:34:59;;;;;;;6.80;4.40;;;;;;;26.79;61.52;99330.94;128259;1289;107949;-80
2023/08/27 14:38:04;;;;;;;4.30;3.90;;;;;;;26.75;61.82;99326.33;128285;1292;106646;-80
2023/08/27 14:41:10;;;;;;;4.80;4.10;;;;;;;26.71;61.98;99327.88;128271;1285;107930;-80
2023/08/27 14:44:16;;;;;;;4.70;4.20;;;;;;;26.67;62.39;99322.21;128111;1285;106174;-81
2023/08/27 14:47:21;;;;;;;4.70;4.20;;;;;;;26.62;62.92;99319.66;128177;1292;107955;-80
2023/08/27 14:50:27;;;;;;;5.70;4.20;;;;;;;26.56;63.06;99311.95;128214;1285;107678;-80
2023/08/27 14:53:33;;;;;;;4.10;3.80;;;;;;;26.54;63.17;99303.05;128266;1279;106564;-80
2023/08/27 14:56:38;;;;;;;5.80;3.90;;;;;;;26.57;62.95;99292.35;128277;1283;108302;-80
2023/08/27 14:59:47;;;;;;;5.90;4.00;;;;;;;26.62;62.96;99287.80;128280;1283;107384;-80
2023/08/27 15:02:52;;;;;;;4.80;3.90;;;;;;;26.63;63.09;99284.63;128248;1284;107916;-80
2023/08/27 15:05:58;;;;;;;4.50;4.10;;;;;;;26.67;63.17;99285.92;128261;1284;107819;-80
2023/08/27 15:09:03;;;;;;;6.50;4.30;;;;;;;26.72;62.98;99281.24;128276;1283;108665;-81
2023/08/27 15:12:17;;;;;;;4.10;3.70;;;;;;;26.72;63.07;99277.30;128281;1288;105995;-80
2023/08/27 15:15:23;;;;;;;4.40;4.00;;;;;;;26.78;63.16;99270.48;128145;1279;106998;-81
2023/08/27 15:18:28;;;;;;;6.60;4.00;;;;;;;26.77;62.96;99269.45;128183;1291;107756;-80
2023/08/27 15:21:34;;;;;;;4.90;4.50;;;;;;;26.76;63.18;99279.58;128222;1285;107466;-80
2023/08/27 15:24:40;;;;;;;5.70;4.20;;;;;;;26.74;63.32;99281.06;128289;1283;107952;-80
2023/08/27 15:27:45;;;;;;;6.10;4.00;;;;;;;26.77;64.01;99284.16;128216;1281;108768;-80
2023/08/27 15:30:53;;;;;;;5.30;4.30;;;;;;;26.77;64.25;99275.51;128285;1283;106367;-80
2023/08/27 15:33:58;;;;;;;6.40;4.60;;;;;;;26.76;64.42;99270.38;128300;1285;108652;-80
2023/08/27 15:37:05;;;;;;;5.00;4.50;;;;;;;26.77;64.99;99269.44;128236;1283;107477;-80
2023/08/27 15:40:12;;;;;;;5.40;4.80;;;;;;;26.76;64.74;99267.09;128259;1293;107478;-80
2023/08/27 15:43:31;;;;;;;4.50;4.10;;;;;;;26.74;64.68;99264.91;128184;1293;108222;-80
2023/08/27 15:46:37;;;;;;;9.90;8.90;;;;;;;26.72;64.71;99260.38;128966;1279;106601;-83
2023/08/27 15:49:43;;;;;;;8.00;6.90;;;;;;;26.71;64.91;99256.62;129023;1279;107502;-83
2023/08/27 15:52:54;;;;;;;7.00;5.90;;;;;;;26.69;65.16;99261.67;128797;1283;107723;-82
2023/08/27 15:56:04;;;;;;;5.50;5.00;;;;;;;26.67;65.35;99262.27;129227;1279;106699;-82
2023/08/27 15:59:10;;;;;;;5.80;5.30;;;;;;;26.65;65.46;99262.23;128514;1283;107385;-83
2023/08/27 16:02:16;;;;;;;6.40;5.30;;;;;;;26.65;65.54;99263.56;128441;1283;107843;-82
2023/08/27 16:05:22;;;;;;;6.20;5.40;;;;;;;26.61;65.94;99259.52;128361;1283;106771;-81
2023/08/27 16:08:27;;;;;;;6.20;5.70;;;;;;;26.57;66.15;99258.16;128583;1279;106948;-81
2023/08/27 16:11:35;;;;;;;6.00;5.50;;;;;;;26.52;66.14;99259.39;128314;1285;106459;-81
2023/08/27 16:14:40;;;;;;;6.00;5.30;;;;;;;26.48;66.92;99260.02;128383;1283;106814;-82
2023/08/27 16:17:47;;;;;;;6.00;4.50;;;;;;;26.44;67.32;99262.83;128449;1291;108354;-81
2023/08/27 16:20:52;;;;;;;5.40;4.50;;;;;;;26.41;67.90;99260.17;128218;1285;107990;-81
2023/08/27 16:23:58;;;;;;;5.40;4.50;;;;;;;26.41;68.25;99258.96;128297;1281;107846;-81
2023/08/27 16:27:05;;;;;;;7.70;5.80;;;;;;;26.43;68.50;99257.58;128242;1285;107075;-81
2023/08/27 16:30:13;;;;;;;6.80;5.50;;;;;;;26.44;68.74;99252.77;128218;1285;107117;-81
2023/08/27 16:33:19;;;;;;;6.10;5.50;;;;;;;26.42;68.78;99247.80;128530;1283;108534;-81
2023/08/27 16:36:24;;;;;;;6.10;5.50;;;;;;;26.39;69.03;99246.77;128326;1283;107364;-81
2023/08/27 16:39:30;;;;;;;5.60;5.00;;;;;;;26.33;69.50;99242.59;128206;1284;108122;-81
2023/08/27 16:42:35;;;;;;;5.70;5.10;;;;;;;26.27;70.17;99236.17;128204;1279;106662;-81
2023/08/27 16:45:42;;;;;;;6.70;5.80;;;;;;;26.20;70.52;99237.59;128245;1279;106860;-81
2023/08/27 16:48:48;;;;;;;6.30;5.70;;;;;;;26.14;70.69;99238.98;128236;1285;107737;-81
2023/08/27 16:51:53;;;;;;;6.00;5.40;;;;;;;26.07;71.21;99236.88;128031;1284;107613;-81
2023/08/27 16:54:59;;;;;;;7.20;6.50;;;;;;;25.99;71.67;99234.56;128406;1283;107572;-81
2023/08/27 16:58:05;;;;;;;6.10;5.50;;;;;;;25.90;71.72;99224.64;128290;1284;107093;-81
2023/08/27 17:01:10;;;;;;;6.00;5.50;;;;;;;25.79;71.44;99219.70;128230;1283;108373;-81
2023/08/27 17:04:16;;;;;;;6.70;5.90;;;;;;;25.70;71.36;99216.55;128268;1283;106419;-81
2023/08/27 17:07:22;;;;;;;7.10;6.50;;;;;;;25.63;71.41;99215.80;128223;1279;106746;-81
2023/08/27 17:10:27;;;;;;;7.20;5.90;;;;;;;25.55;71.56;99217.14;128360;1281;109523;-81
2023/08/27 17:13:34;;;;;;;7.80;6.90;;;;;;;25.44;72.13;99217.05;128483;1292;107863;-82
2023/08/27 17:16:42;;;;;;;6.90;6.10;;;;;;;25.34;72.40;99213.48;128745;1280;107781;-81
2023/08/27 17:19:47;;;;;;;6.20;5.60;;;;;;;25.22;72.86;99203.88;128393;1279;108613;-82
2023/08/27 17:22:53;;;;;;;6.40;5.80;;;;;;;25.11;73.04;99202.23;128454;1283;108159;-82
2023/08/27 17:25:59;;;;;;;6.50;5.90;;;;;;;25.01;73.29;99212.79;128743;1279;108715;-81
2023/08/27 17:29:05;;;;;;;6.60;5.90;;;;;;;24.89;73.51;99223.20;128238;1279;108181;-80
2023/08/27 17:32:10;;;;;;;6.60;6.00;;;;;;;24.77;73.79;99221.07;128266;1279;106974;-81
2023/08/27 17:35:16;;;;;;;6.00;5.30;;;;;;;24.68;74.11;99211.20;128153;1283;109690;-79
2023/08/27 17:38:23;;;;;;;6.00;5.50;;;;;;;24.57;74.35;99216.09;128274;1284;107754;-81
2023/08/27 17:41:32;;;;;;;6.10;5.50;;;;;;;24.47;74.68;99215.02;128311;1279;107312;-82
2023/08/27 17:44:38;;;;;;;5.50;5.00;;;;;;;24.37;74.77;99222.52;128206;1280;107652;-81
2023/08/27 17:47:45;;;;;;;6.30;5.70;;;;;;;24.28;75.23;99233.90;128897;1283;107636;-79
2023/08/27 17:50:51;;;;;;;6.30;5.70;;;;;;;24.19;75.35;99235.77;128482;1279;106844;-79
2023/08/27 17:53:56;;;;;;;6.00;5.40;;;;;;;24.06;75.39;99229.79;128276;1285;107875;-80
2023/08/27 17:57:02;;;;;;;5.70;4.90;;;;;;;23.94;75.91;99228.93;128361;1291;108646;-80
2023/08/27 18:00:10;;;;;;;5.50;4.90;;;;;;;23.84;76.06;99227.90;128335;1279;107707;-79
2023/08/27 18:03:16;;;;;;;5.60;5.10;;;;;;;23.74;76.33;99230.88;128284;1281;107753;-80
2023/08/27 18:06:22;;;;;;;6.40;5.80;;;;;;;23.67;76.45;99244.14;128192;1279;107788;-80
2023/08/27 18:09:27;;;;;;;6.50;5.50;;;;;;;23.60;76.73;99244.92;128250;1279;107688;-80
2023/08/27 18:12:33;;;;;;;5.70;5.20;;;;;;;23.49;76.96;99238.33;128116;1284;108786;-79
2023/08/27 18:15:38;;;;;;;5.00;4.50;;;;;;;23.42;77.10;99226.07;128185;1283;107519;-79
2023/08/27 18:18:44;;;;;;;10.80;7.80;;;;;;;23.37;77.26;99214.06;128148;1283;106945;-79
2023/08/27 18:21:50;;;;;;;7.50;6.00;;;;;;;23.32;77.37;99209.14;128165;1286;107858;-80
2023/08/27 18:24:56;;;;;;;6.20;5.60;;;;;;;23.26;77.47;99213.18;128254;1284;107682;-79
2023/08/27 18:28:01;;;;;;;6.30;5.20;;;;;;;23.18;77.59;99214.20;128210;1284;107524;-84
2023/08/27 18:31:07;;;;;;;5.00;4.50;;;;;;;23.08;77.77;99225.40;128473;1280;108719;-80
2023/08/27 18:34:13;;;;;;;5.30;4.60;;;;;;;23.02;77.98;99227.30;128150;1292;107724;-80
2023/08/27 18:37:18;;;;;;;4.90;4.40;;;;;;;22.98;78.17;99222.14;128256;1279;106975;-81
2023/08/27 18:40:24;;;;;;;6.20;5.00;;;;;;;22.93;78.33;99224.83;127946;1287;108711;-79
2023/08/27 18:43:30;;;;;;;6.30;5.00;;;;;;;22.89;78.43;99229.41;128229;1284;107824;-79
2023/08/27 18:46:38;;;;;;;5.70;5.20;;;;;;;22.83;78.55;99225.66;128271;1284;106731;-82
2023/08/27 18:49:44;;;;;;;5.90;4.90;;;;;;;22.78;78.72;99222.79;128135;1283;108764;-80
2023/08/27 18:52:50;;;;;;;5.80;4.60;;;;;;;22.71;78.75;99225.08;128253;1279;107476;-81
2023/08/27 18:55:55;;;;;;;6.30;4.70;;;;;;;22.67;79.07;99227.48;128243;1284;107881;-80
2023/08/27 18:59:01;;;;;;;5.30;4.80;;;;;;;22.63;79.23;99224.99;128232;1280;107873;-81
2023/08/27 19:02:08;;;;;;;5.30;4.80;;;;;;;22.61;79.23;99225.63;128219;1284;107801;-80
2023/08/27 19:05:14;;;;;;;5.80;5.20;;;;;;;22.56;79.33;99221.35;128233;1284;105848;-81
2023/08/27 19:08:20;;;;;;;6.60;4.70;;;;;;;22.49;79.42;99216.83;128271;1280;108837;-81
2023/08/27 19:11:26;;;;;;;4.70;4.20;;;;;;;22.42;79.61;99217.52;128210;1283;108270;-80
2023/08/27 19:14:31;;;;;;;5.80;5.20;;;;;;;22.37;79.80;99214.91;128236;1279;107691;-79
2023/08/27 19:17:38;;;;;;;5.40;4.90;;;;;;;22.31;79.97;99208.11;128210;1280;108085;-80
2023/08/27 19:20:50;;;;;;;5.80;5.20;;;;;;;22.30;80.06;99203.25;128315;1283;107912;-80
2023/08/27 19:23:55;;;;;;;5.30;4.80;;;;;;;22.27;80.11;99201.52;128416;1281;107641;-78
2023/08/27 19:27:02;;;;;;;7.40;4.90;;;;;;;22.23;80.27;99200.60;128304;1283;106773;-78
2023/08/27 19:30:10;;;;;;;5.50;4.70;;;;;;;22.19;80.27;99197.40;128182;1279;106728;-78
2023/08/27 19:33:15;;;;;;;5.30;4.50;;;;;;;22.17;80.47;99202.75;128339;1284;108091;-78
2023/08/27 19:36:21;;;;;;;6.50;5.10;;;;;;;22.13;80.46;99207.55;128168;1280;106852;-78
2023/08/27 19:39:27;;;;;;;5.70;5.10;;;;;;;22.09;80.51;99209.46;128368;1279;107770;-79
2023/08/27 19:42:32;;;;;;;5.60;5.00;;;;;;;22.05;80.63;99197.73;128215;1285;106730;-78
2023/08/27 19:45:38;;;;;;;6.60;4.40;;;;;;;22.00;80.83;99192.85;128241;1281;107922;-78
2023/08/27 19:48:44;;;;;;;5.50;5.00;;;;;;;21.97;80.81;99177.61;128485;1279;107750;-77
2023/08/27 19:51:49;;;;;;;5.40;4.70;;;;;;;21.94;80.95;99181.20;127954;1285;107926;-78
2023/08/27 19:54:55;;;;;;;5.40;4.80;;;;;;;21.90;81.12;99186.81;128290;1279;107039;-78
2023/08/27 19:58:01;;;;;;;5.80;4.50;;;;;;;21.84;81.22;99188.31;128239;1279;108780;-78
2023/08/27 20:01:06;;;;;;;4.50;4.10;;;;;;;21.79;81.22;99182.95;128213;1279;106719;-77
2023/08/27 20:04:12;;;;;;;6.20;5.20;;;;;;;21.78;81.40;99160.60;128236;1279;107286;-78
2023/08/27 20:07:18;;;;;;;7.70;4.80;;;;;;;21.77;81.40;99158.52;128219;1279;107284;-78
2023/08/27 20:10:24;;;;;;;7.20;5.00;;;;;;;21.74;81.59;99152.40;128266;1279;106484;-78
2023/08/27 20:13:31;;;;;;;5.80;5.00;;;;;;;21.71;81.50;99150.21;128261;1279;107681;-79
2023/08/27 20:16:37;;;;;;;5.90;5.30;;;;;;;21.68;81.59;99149.17;128376;1279;107920;-79
2023/08/27 20:19:42;;;;;;;6.10;5.20;;;;;;;21.64;81.78;99157.73;128383;1283;107829;-79
2023/08/27 20:22:48;;;;;;;6.90;5.70;;;;;;;21.61;82.02;99143.95;128349;1283;108635;-78
2023/08/27 20:25:55;;;;;;;7.60;6.80;;;;;;;21.63;82.24;99135.55;128264;1283;108652;-78